sensor_id;sensor_type;location;lat;lon;timestamp;temperature;humidity
16907;DHT22;8570;52.380;4.654;2022-08-03T00:00:16;20.30;99.90
16907;DHT22;8570;52.380;4.654;2022-08-03T00:05:20;20.30;99.90
16907;DHT22;8570;52.380;4.654;2022-08-03T00:10:22;20.30;99.90
16907;DHT22;8570;52.380;4.654;2022-08-03T00:15:24;20.30;99.90
16907;DHT22;8570;52.380;4.654;2022-08-03T00:20:27;20.20;99.90
16907;DHT22;8570;52.380;4.654;2022-08-03T00:25:29;20.20;99.90
16907;DHT22;8570;52.380;4.654;2022-08-03T00:30:32;20.20;99.90
16907;DHT22;8570;52.380;4.654;2022-08-03T00:35:35;20.20;99.90
16907;DHT22;8570;52.380;4.654;2022-08-03T00:40:37;20.20;99.90
16907;DHT22;8570;52.380;4.654;2022-08-03T00:45:40;20.20;99.90
16907;DHT22;8570;52.380;4.654;2022-08-03T00:50:44;20.20;99.90
16907;DHT22;8570;52.380;4.654;2022-08-03T00:55:47;20.20;99.90
16907;DHT22;8570;52.380;4.654;2022-08-03T01:00:49;20.10;99.90
16907;DHT22;8570;52.380;4.654;2022-08-03T01:05:59;20.10;99.90
16907;DHT22;8570;52.380;4.654;2022-08-03T01:11:07;20.10;99.90
16907;DHT22;8570;52.380;4.654;2022-08-03T01:16:14;20.10;99.90
16907;DHT22;8570;52.380;4.654;2022-08-03T01:21:26;20.10;99.90
16907;DHT22;8570;52.380;4.654;2022-08-03T01:26:56;20.00;99.90
16907;DHT22;8570;52.380;4.654;2022-08-03T01:32:05;20.00;99.90
16907;DHT22;8570;52.380;4.654;2022-08-03T01:37:10;20.00;99.90
16907;DHT22;8570;52.380;4.654;2022-08-03T01:42:13;19.90;99.90
16907;DHT22;8570;52.380;4.654;2022-08-03T01:47:20;19.80;99.90
16907;DHT22;8570;52.380;4.654;2022-08-03T01:52:23;19.80;99.90
16907;DHT22;8570;52.380;4.654;2022-08-03T01:57:27;19.70;99.90
16907;DHT22;8570;52.380;4.654;2022-08-03T02:02:32;19.70;99.90
16907;DHT22;8570;52.380;4.654;2022-08-03T02:07:35;19.70;99.90
16907;DHT22;8570;52.380;4.654;2022-08-03T02:12:42;19.70;99.90
16907;DHT22;8570;52.380;4.654;2022-08-03T02:17:47;19.60;99.90
16907;DHT22;8570;52.380;4.654;2022-08-03T02:22:49;19.60;99.90
16907;DHT22;8570;52.380;4.654;2022-08-03T02:27:55;19.60;99.90
16907;DHT22;8570;52.380;4.654;2022-08-03T02:32:59;19.60;99.90
16907;DHT22;8570;52.380;4.654;2022-08-03T02:38:04;19.60;99.90
16907;DHT22;8570;52.380;4.654;2022-08-03T02:43:10;19.60;99.90
16907;DHT22;8570;52.380;4.654;2022-08-03T02:48:17;19.50;99.90
16907;DHT22;8570;52.380;4.654;2022-08-03T02:53:20;19.50;99.90
16907;DHT22;8570;52.380;4.654;2022-08-03T02:58:23;19.40;99.90
16907;DHT22;8570;52.380;4.654;2022-08-03T03:03:28;19.40;99.90
16907;DHT22;8570;52.380;4.654;2022-08-03T03:08:32;19.40;99.90
16907;DHT22;8570;52.380;4.654;2022-08-03T03:13:34;19.30;99.90
16907;DHT22;8570;52.380;4.654;2022-08-03T03:18:39;19.30;99.90
16907;DHT22;8570;52.380;4.654;2022-08-03T03:23:41;19.30;99.90
16907;DHT22;8570;52.380;4.654;2022-08-03T03:28:44;19.30;99.90
16907;DHT22;8570;52.380;4.654;2022-08-03T03:33:48;19.20;99.90
16907;DHT22;8570;52.380;4.654;2022-08-03T03:38:50;19.20;99.90
16907;DHT22;8570;52.380;4.654;2022-08-03T03:43:52;19.10;99.90
16907;DHT22;8570;52.380;4.654;2022-08-03T03:48:56;19.10;99.90
16907;DHT22;8570;52.380;4.654;2022-08-03T03:53:59;19.10;99.90
16907;DHT22;8570;52.380;4.654;2022-08-03T03:59:01;19.10;99.90
16907;DHT22;8570;52.380;4.654;2022-08-03T04:04:05;19.00;99.90
16907;DHT22;8570;52.380;4.654;2022-08-03T04:09:21;19.00;99.90
16907;DHT22;8570;52.380;4.654;2022-08-03T04:14:40;19.00;99.90
16907;DHT22;8570;52.380;4.654;2022-08-03T04:19:45;18.90;99.90
16907;DHT22;8570;52.380;4.654;2022-08-03T04:24:50;18.90;99.90
16907;DHT22;8570;52.380;4.654;2022-08-03T04:29:56;18.90;99.90
16907;DHT22;8570;52.380;4.654;2022-08-03T04:34:59;18.90;99.90
16907;DHT22;8570;52.380;4.654;2022-08-03T04:40:04;18.90;99.90
16907;DHT22;8570;52.380;4.654;2022-08-03T04:45:08;18.90;99.90
16907;DHT22;8570;52.380;4.654;2022-08-03T04:50:14;18.80;99.90
16907;DHT22;8570;52.380;4.654;2022-08-03T04:55:24;18.90;99.90
16907;DHT22;8570;52.380;4.654;2022-08-03T05:00:27;18.90;99.90
16907;DHT22;8570;52.380;4.654;2022-08-03T05:05:31;18.90;99.90
16907;DHT22;8570;52.380;4.654;2022-08-03T05:10:36;19.00;99.90
16907;DHT22;8570;52.380;4.654;2022-08-03T05:15:38;19.00;99.90
16907;DHT22;8570;52.380;4.654;2022-08-03T05:20:41;19.00;99.90
16907;DHT22;8570;52.380;4.654;2022-08-03T05:25:43;19.10;99.90
16907;DHT22;8570;52.380;4.654;2022-08-03T05:30:45;19.10;99.90
16907;DHT22;8570;52.380;4.654;2022-08-03T05:35:51;19.10;99.90
16907;DHT22;8570;52.380;4.654;2022-08-03T05:40:56;19.10;99.90
16907;DHT22;8570;52.380;4.654;2022-08-03T05:45:58;19.20;99.90
16907;DHT22;8570;52.380;4.654;2022-08-03T05:51:01;19.30;99.90
16907;DHT22;8570;52.380;4.654;2022-08-03T05:56:05;19.40;99.90
16907;DHT22;8570;52.380;4.654;2022-08-03T06:01:07;19.40;99.90
16907;DHT22;8570;52.380;4.654;2022-08-03T06:06:10;19.50;99.90
16907;DHT22;8570;52.380;4.654;2022-08-03T06:11:12;19.60;99.90
16907;DHT22;8570;52.380;4.654;2022-08-03T06:16:14;19.70;99.90
16907;DHT22;8570;52.380;4.654;2022-08-03T06:21:17;19.70;99.90
16907;DHT22;8570;52.380;4.654;2022-08-03T06:26:19;19.80;99.90
16907;DHT22;8570;52.380;4.654;2022-08-03T06:31:26;19.90;99.90
16907;DHT22;8570;52.380;4.654;2022-08-03T06:36:30;20.00;99.90
16907;DHT22;8570;52.380;4.654;2022-08-03T06:41:33;20.10;99.90
16907;DHT22;8570;52.380;4.654;2022-08-03T06:46:35;20.20;99.90
16907;DHT22;8570;52.380;4.654;2022-08-03T06:51:44;20.30;99.90
16907;DHT22;8570;52.380;4.654;2022-08-03T06:56:50;20.40;99.90
16907;DHT22;8570;52.380;4.654;2022-08-03T07:01:52;20.50;99.90
16907;DHT22;8570;52.380;4.654;2022-08-03T07:06:55;20.60;99.90
16907;DHT22;8570;52.380;4.654;2022-08-03T07:11:58;20.80;99.90
16907;DHT22;8570;52.380;4.654;2022-08-03T07:17:01;20.90;99.90
16907;DHT22;8570;52.380;4.654;2022-08-03T07:22:05;21.00;99.90
16907;DHT22;8570;52.380;4.654;2022-08-03T07:27:10;21.20;99.90
16907;DHT22;8570;52.380;4.654;2022-08-03T07:32:12;21.30;99.90
16907;DHT22;8570;52.380;4.654;2022-08-03T07:37:15;21.30;99.90
16907;DHT22;8570;52.380;4.654;2022-08-03T07:42:17;21.40;99.90
16907;DHT22;8570;52.380;4.654;2022-08-03T07:47:22;21.50;99.90
16907;DHT22;8570;52.380;4.654;2022-08-03T07:52:25;21.50;99.90
16907;DHT22;8570;52.380;4.654;2022-08-03T07:57:44;21.60;99.90
16907;DHT22;8570;52.380;4.654;2022-08-03T08:02:46;21.70;99.90
16907;DHT22;8570;52.380;4.654;2022-08-03T08:07:50;21.80;99.90
16907;DHT22;8570;52.380;4.654;2022-08-03T08:12:51;21.90;99.90
16907;DHT22;8570;52.380;4.654;2022-08-03T08:17:55;22.00;99.90
16907;DHT22;8570;52.380;4.654;2022-08-03T08:22:59;22.00;99.90
16907;DHT22;8570;52.380;4.654;2022-08-03T08:28:02;22.10;99.90
16907;DHT22;8570;52.380;4.654;2022-08-03T08:33:04;22.10;99.90
16907;DHT22;8570;52.380;4.654;2022-08-03T08:38:07;22.30;99.90
16907;DHT22;8570;52.380;4.654;2022-08-03T08:43:09;22.40;99.90
16907;DHT22;8570;52.380;4.654;2022-08-03T08:48:12;22.60;99.90
16907;DHT22;8570;52.380;4.654;2022-08-03T08:53:17;22.60;99.90
16907;DHT22;8570;52.380;4.654;2022-08-03T08:58:21;22.70;99.90
16907;DHT22;8570;52.380;4.654;2022-08-03T09:03:23;22.80;99.90
16907;DHT22;8570;52.380;4.654;2022-08-03T09:08:27;22.90;99.90
16907;DHT22;8570;52.380;4.654;2022-08-03T09:13:29;23.10;99.90
16907;DHT22;8570;52.380;4.654;2022-08-03T09:18:31;23.30;99.90
16907;DHT22;8570;52.380;4.654;2022-08-03T09:23:44;23.40;99.90
16907;DHT22;8570;52.380;4.654;2022-08-03T09:28:54;23.50;99.90
16907;DHT22;8570;52.380;4.654;2022-08-03T09:33:56;23.70;99.90
16907;DHT22;8570;52.380;4.654;2022-08-03T09:39:03;24.00;99.90
16907;DHT22;8570;52.380;4.654;2022-08-03T09:44:06;24.30;99.90
16907;DHT22;8570;52.380;4.654;2022-08-03T09:49:09;24.50;99.90
16907;DHT22;8570;52.380;4.654;2022-08-03T09:54:25;24.60;99.90
16907;DHT22;8570;52.380;4.654;2022-08-03T09:59:28;24.60;99.90
16907;DHT22;8570;52.380;4.654;2022-08-03T10:04:30;24.70;99.90
16907;DHT22;8570;52.380;4.654;2022-08-03T10:09:33;24.80;99.90
16907;DHT22;8570;52.380;4.654;2022-08-03T10:14:36;25.00;99.90
16907;DHT22;8570;52.380;4.654;2022-08-03T10:19:39;25.10;99.90
16907;DHT22;8570;52.380;4.654;2022-08-03T10:24:48;25.10;99.90
16907;DHT22;8570;52.380;4.654;2022-08-03T10:29:53;25.30;99.90
16907;DHT22;8570;52.380;4.654;2022-08-03T10:35:03;25.40;99.90
16907;DHT22;8570;52.380;4.654;2022-08-03T10:40:11;25.60;99.90
16907;DHT22;8570;52.380;4.654;2022-08-03T10:45:17;25.70;99.90
16907;DHT22;8570;52.380;4.654;2022-08-03T10:50:22;25.90;99.90
16907;DHT22;8570;52.380;4.654;2022-08-03T10:55:31;25.90;99.90
16907;DHT22;8570;52.380;4.654;2022-08-03T11:00:51;25.90;99.90
16907;DHT22;8570;52.380;4.654;2022-08-03T11:06:14;25.90;99.90
16907;DHT22;8570;52.380;4.654;2022-08-03T11:11:25;26.00;99.90
16907;DHT22;8570;52.380;4.654;2022-08-03T11:16:29;26.10;99.90
16907;DHT22;8570;52.380;4.654;2022-08-03T11:21:54;26.20;99.90
16907;DHT22;8570;52.380;4.654;2022-08-03T11:27:19;26.40;99.90
16907;DHT22;8570;52.380;4.654;2022-08-03T11:32:53;26.50;99.90
16907;DHT22;8570;52.380;4.654;2022-08-03T11:38:08;26.40;99.90
16907;DHT22;8570;52.380;4.654;2022-08-03T11:48:52;26.60;99.90
16907;DHT22;8570;52.380;4.654;2022-08-03T11:54:03;26.60;99.90
16907;DHT22;8570;52.380;4.654;2022-08-03T11:59:05;26.60;99.90
16907;DHT22;8570;52.380;4.654;2022-08-03T12:04:10;26.70;99.90
16907;DHT22;8570;52.380;4.654;2022-08-03T12:09:15;26.80;99.90
16907;DHT22;8570;52.380;4.654;2022-08-03T12:14:17;26.90;99.90
16907;DHT22;8570;52.380;4.654;2022-08-03T12:19:21;27.00;99.90
16907;DHT22;8570;52.380;4.654;2022-08-03T12:24:23;27.10;99.90
16907;DHT22;8570;52.380;4.654;2022-08-03T12:29:27;27.10;99.90
16907;DHT22;8570;52.380;4.654;2022-08-03T12:40:00;27.10;99.90
16907;DHT22;8570;52.380;4.654;2022-08-03T12:45:23;27.50;99.90
16907;DHT22;8570;52.380;4.654;2022-08-03T12:50:27;27.50;99.90
16907;DHT22;8570;52.380;4.654;2022-08-03T12:55:32;27.60;99.90
16907;DHT22;8570;52.380;4.654;2022-08-03T13:00:35;27.60;99.90
16907;DHT22;8570;52.380;4.654;2022-08-03T13:05:42;27.60;99.90
16907;DHT22;8570;52.380;4.654;2022-08-03T13:10:46;27.70;99.90
16907;DHT22;8570;52.380;4.654;2022-08-03T13:15:48;27.60;99.90
16907;DHT22;8570;52.380;4.654;2022-08-03T13:20:50;27.60;99.90
16907;DHT22;8570;52.380;4.654;2022-08-03T13:25:56;27.50;99.90
16907;DHT22;8570;52.380;4.654;2022-08-03T13:30:58;27.50;99.90
16907;DHT22;8570;52.380;4.654;2022-08-03T13:35:59;27.50;99.90
16907;DHT22;8570;52.380;4.654;2022-08-03T13:41:03;27.40;99.90
16907;DHT22;8570;52.380;4.654;2022-08-03T13:46:04;27.10;99.90
16907;DHT22;8570;52.380;4.654;2022-08-03T13:51:06;27.00;99.90
16907;DHT22;8570;52.380;4.654;2022-08-03T13:56:09;27.00;99.90
16907;DHT22;8570;52.380;4.654;2022-08-03T14:01:11;27.20;99.90
16907;DHT22;8570;52.380;4.654;2022-08-03T14:06:13;27.50;99.90
16907;DHT22;8570;52.380;4.654;2022-08-03T14:11:17;27.70;99.10
16907;DHT22;8570;52.380;4.654;2022-08-03T14:16:18;27.80;99.70
16907;DHT22;8570;52.380;4.654;2022-08-03T14:21:20;27.90;99.70
16907;DHT22;8570;52.380;4.654;2022-08-03T14:26:23;27.90;98.70
16907;DHT22;8570;52.380;4.654;2022-08-03T14:31:25;27.80;99.20
16907;DHT22;8570;52.380;4.654;2022-08-03T14:36:27;27.70;98.90
16907;DHT22;8570;52.380;4.654;2022-08-03T14:41:30;27.60;99.20
16907;DHT22;8570;52.380;4.654;2022-08-03T14:46:32;27.70;98.80
16907;DHT22;8570;52.380;4.654;2022-08-03T14:51:34;27.70;98.70
16907;DHT22;8570;52.380;4.654;2022-08-03T14:56:37;27.70;98.20
16907;DHT22;8570;52.380;4.654;2022-08-03T15:01:39;27.80;98.50
16907;DHT22;8570;52.380;4.654;2022-08-03T15:06:41;27.80;98.20
16907;DHT22;8570;52.380;4.654;2022-08-03T15:11:44;27.80;97.80
16907;DHT22;8570;52.380;4.654;2022-08-03T15:16:46;28.00;97.30
16907;DHT22;8570;52.380;4.654;2022-08-03T15:21:48;28.00;97.10
16907;DHT22;8570;52.380;4.654;2022-08-03T15:26:51;27.90;97.00
16907;DHT22;8570;52.380;4.654;2022-08-03T15:31:53;27.80;96.90
16907;DHT22;8570;52.380;4.654;2022-08-03T15:36:55;27.70;97.00
16907;DHT22;8570;52.380;4.654;2022-08-03T15:41:58;27.60;97.20
16907;DHT22;8570;52.380;4.654;2022-08-03T15:47:00;27.70;97.30
16907;DHT22;8570;52.380;4.654;2022-08-03T15:52:03;27.70;97.60
16907;DHT22;8570;52.380;4.654;2022-08-03T15:57:06;27.60;97.10
16907;DHT22;8570;52.380;4.654;2022-08-03T16:02:09;27.60;96.90
16907;DHT22;8570;52.380;4.654;2022-08-03T16:07:10;27.80;97.20
16907;DHT22;8570;52.380;4.654;2022-08-03T16:12:16;27.80;96.40
16907;DHT22;8570;52.380;4.654;2022-08-03T16:17:18;27.90;95.90
16907;DHT22;8570;52.380;4.654;2022-08-03T16:22:22;27.90;96.00
16907;DHT22;8570;52.380;4.654;2022-08-03T16:27:25;27.80;95.80
16907;DHT22;8570;52.380;4.654;2022-08-03T16:32:27;27.80;95.90
16907;DHT22;8570;52.380;4.654;2022-08-03T16:37:29;27.80;95.40
16907;DHT22;8570;52.380;4.654;2022-08-03T16:42:35;27.90;95.50
16907;DHT22;8570;52.380;4.654;2022-08-03T16:47:37;27.80;94.60
16907;DHT22;8570;52.380;4.654;2022-08-03T16:52:39;27.60;95.20
16907;DHT22;8570;52.380;4.654;2022-08-03T16:57:42;27.40;95.20
16907;DHT22;8570;52.380;4.654;2022-08-03T17:02:45;27.30;95.20
16907;DHT22;8570;52.380;4.654;2022-08-03T17:07:49;27.20;95.10
16907;DHT22;8570;52.380;4.654;2022-08-03T17:12:53;27.00;95.40
16907;DHT22;8570;52.380;4.654;2022-08-03T17:18:00;26.90;95.60
16907;DHT22;8570;52.380;4.654;2022-08-03T17:23:11;26.70;96.00
16907;DHT22;8570;52.380;4.654;2022-08-03T17:28:18;26.60;96.40
16907;DHT22;8570;52.380;4.654;2022-08-03T17:33:21;26.50;96.70
16907;DHT22;8570;52.380;4.654;2022-08-03T17:38:23;26.40;96.70
16907;DHT22;8570;52.380;4.654;2022-08-03T17:43:27;26.40;96.90
16907;DHT22;8570;52.380;4.654;2022-08-03T17:48:30;26.40;96.90
16907;DHT22;8570;52.380;4.654;2022-08-03T17:53:37;26.20;96.90
16907;DHT22;8570;52.380;4.654;2022-08-03T17:58:50;26.20;97.00
16907;DHT22;8570;52.380;4.654;2022-08-03T18:04:02;26.10;97.30
16907;DHT22;8570;52.380;4.654;2022-08-03T18:09:05;26.10;97.30
16907;DHT22;8570;52.380;4.654;2022-08-03T18:14:14;26.00;97.50
16907;DHT22;8570;52.380;4.654;2022-08-03T18:19:16;26.00;97.60
16907;DHT22;8570;52.380;4.654;2022-08-03T18:24:19;25.90;97.80
16907;DHT22;8570;52.380;4.654;2022-08-03T18:29:25;25.80;97.70
16907;DHT22;8570;52.380;4.654;2022-08-03T18:34:29;25.80;97.70
16907;DHT22;8570;52.380;4.654;2022-08-03T18:39:31;25.70;97.70
16907;DHT22;8570;52.380;4.654;2022-08-03T18:44:35;25.60;97.70
16907;DHT22;8570;52.380;4.654;2022-08-03T18:49:43;25.60;97.50
16907;DHT22;8570;52.380;4.654;2022-08-03T18:54:54;25.50;97.30
16907;DHT22;8570;52.380;4.654;2022-08-03T19:00:03;25.40;97.50
16907;DHT22;8570;52.380;4.654;2022-08-03T19:05:08;25.30;97.70
16907;DHT22;8570;52.380;4.654;2022-08-03T19:10:10;25.20;97.90
16907;DHT22;8570;52.380;4.654;2022-08-03T19:15:13;25.10;98.10
16907;DHT22;8570;52.380;4.654;2022-08-03T19:20:19;25.00;98.20
16907;DHT22;8570;52.380;4.654;2022-08-03T19:25:21;24.90;98.40
16907;DHT22;8570;52.380;4.654;2022-08-03T19:30:25;24.80;98.50
16907;DHT22;8570;52.380;4.654;2022-08-03T19:35:41;24.70;98.70
16907;DHT22;8570;52.380;4.654;2022-08-03T19:40:44;24.60;98.90
16907;DHT22;8570;52.380;4.654;2022-08-03T19:45:49;24.50;99.10
16907;DHT22;8570;52.380;4.654;2022-08-03T19:50:53;24.60;99.20
16907;DHT22;8570;52.380;4.654;2022-08-03T19:55:56;24.60;99.10
16907;DHT22;8570;52.380;4.654;2022-08-03T20:01:00;24.60;99.30
16907;DHT22;8570;52.380;4.654;2022-08-03T20:06:04;24.50;99.40
16907;DHT22;8570;52.380;4.654;2022-08-03T20:11:07;24.40;99.50
16907;DHT22;8570;52.380;4.654;2022-08-03T20:16:11;24.30;99.70
16907;DHT22;8570;52.380;4.654;2022-08-03T20:21:14;24.20;99.90
16907;DHT22;8570;52.380;4.654;2022-08-03T20:26:18;24.10;99.90
16907;DHT22;8570;52.380;4.654;2022-08-03T20:31:22;24.10;99.90
16907;DHT22;8570;52.380;4.654;2022-08-03T20:36:24;24.10;99.90
16907;DHT22;8570;52.380;4.654;2022-08-03T20:41:26;24.10;99.90
16907;DHT22;8570;52.380;4.654;2022-08-03T20:46:29;24.10;99.90
16907;DHT22;8570;52.380;4.654;2022-08-03T20:51:32;24.00;99.90
16907;DHT22;8570;52.380;4.654;2022-08-03T20:56:35;24.00;99.90
16907;DHT22;8570;52.380;4.654;2022-08-03T21:01:39;24.00;99.90
16907;DHT22;8570;52.380;4.654;2022-08-03T21:06:43;23.90;99.90
16907;DHT22;8570;52.380;4.654;2022-08-03T21:11:55;23.90;99.90
16907;DHT22;8570;52.380;4.654;2022-08-03T21:17:02;23.80;99.90
16907;DHT22;8570;52.380;4.654;2022-08-03T21:22:08;23.80;99.90
16907;DHT22;8570;52.380;4.654;2022-08-03T21:27:13;23.80;99.90
16907;DHT22;8570;52.380;4.654;2022-08-03T21:32:17;23.70;99.90
16907;DHT22;8570;52.380;4.654;2022-08-03T21:37:22;23.60;99.90
16907;DHT22;8570;52.380;4.654;2022-08-03T21:42:24;23.60;99.90
16907;DHT22;8570;52.380;4.654;2022-08-03T21:47:28;23.50;99.90
16907;DHT22;8570;52.380;4.654;2022-08-03T21:52:31;23.50;99.90
16907;DHT22;8570;52.380;4.654;2022-08-03T21:57:33;23.40;99.90
16907;DHT22;8570;52.380;4.654;2022-08-03T22:02:37;23.30;99.90
16907;DHT22;8570;52.380;4.654;2022-08-03T22:07:40;23.30;99.90
16907;DHT22;8570;52.380;4.654;2022-08-03T22:12:42;23.20;99.90
16907;DHT22;8570;52.380;4.654;2022-08-03T22:17:46;23.20;99.90
16907;DHT22;8570;52.380;4.654;2022-08-03T22:22:49;23.10;99.90
16907;DHT22;8570;52.380;4.654;2022-08-03T22:27:54;23.10;99.90
16907;DHT22;8570;52.380;4.654;2022-08-03T22:32:58;23.00;99.90
16907;DHT22;8570;52.380;4.654;2022-08-03T22:38:05;23.00;99.90
16907;DHT22;8570;52.380;4.654;2022-08-03T22:43:07;22.90;99.90
16907;DHT22;8570;52.380;4.654;2022-08-03T22:48:10;22.90;99.90
16907;DHT22;8570;52.380;4.654;2022-08-03T22:53:16;22.80;99.90
16907;DHT22;8570;52.380;4.654;2022-08-03T22:58:18;22.80;99.90
16907;DHT22;8570;52.380;4.654;2022-08-03T23:03:24;22.70;99.90
16907;DHT22;8570;52.380;4.654;2022-08-03T23:08:29;22.70;99.90
16907;DHT22;8570;52.380;4.654;2022-08-03T23:13:32;22.60;99.90
16907;DHT22;8570;52.380;4.654;2022-08-03T23:18:36;22.60;99.90
16907;DHT22;8570;52.380;4.654;2022-08-03T23:23:40;22.50;99.90
16907;DHT22;8570;52.380;4.654;2022-08-03T23:28:44;22.50;99.90
16907;DHT22;8570;52.380;4.654;2022-08-03T23:33:49;22.50;99.90
16907;DHT22;8570;52.380;4.654;2022-08-03T23:39:11;22.40;99.90
16907;DHT22;8570;52.380;4.654;2022-08-03T23:44:13;22.30;99.90
16907;DHT22;8570;52.380;4.654;2022-08-03T23:49:18;22.30;99.90
16907;DHT22;8570;52.380;4.654;2022-08-03T23:54:37;22.30;99.90
16907;DHT22;8570;52.380;4.654;2022-08-03T23:59:50;22.20;99.90
